sensor_id;sensor_type;location;lat;lon;timestamp;P1;durP1;ratioP1;P2;durP2;ratioP2
12816;SDS011;6473;51.552;6.716;2022-08-07T00:01:07;4.63;;;2.50;;
12816;SDS011;6473;51.552;6.716;2022-08-07T00:03:34;2.90;;;2.42;;
12816;SDS011;6473;51.552;6.716;2022-08-07T00:06:01;2.80;;;2.58;;
12816;SDS011;6473;51.552;6.716;2022-08-07T00:08:29;3.88;;;2.72;;
12816;SDS011;6473;51.552;6.716;2022-08-07T00:10:59;3.60;;;2.35;;
12816;SDS011;6473;51.552;6.716;2022-08-07T00:13:26;3.95;;;2.10;;
12816;SDS011;6473;51.552;6.716;2022-08-07T00:15:53;3.22;;;2.83;;
12816;SDS011;6473;51.552;6.716;2022-08-07T00:18:22;3.63;;;2.63;;
12816;SDS011;6473;51.552;6.716;2022-08-07T00:20:50;3.45;;;2.72;;
12816;SDS011;6473;51.552;6.716;2022-08-07T00:23:18;3.05;;;2.75;;
12816;SDS011;6473;51.552;6.716;2022-08-07T00:25:45;3.45;;;2.80;;
12816;SDS011;6473;51.552;6.716;2022-08-07T00:28:13;3.10;;;2.90;;
12816;SDS011;6473;51.552;6.716;2022-08-07T00:30:43;5.50;;;2.97;;
12816;SDS011;6473;51.552;6.716;2022-08-07T00:33:14;3.55;;;2.47;;
12816;SDS011;6473;51.552;6.716;2022-08-07T00:35:41;3.05;;;2.72;;
12816;SDS011;6473;51.552;6.716;2022-08-07T00:38:08;2.72;;;2.30;;
12816;SDS011;6473;51.552;6.716;2022-08-07T00:40:35;2.90;;;2.70;;
12816;SDS011;6473;51.552;6.716;2022-08-07T00:43:04;3.05;;;2.75;;
12816;SDS011;6473;51.552;6.716;2022-08-07T00:45:32;3.03;;;2.72;;
12816;SDS011;6473;51.552;6.716;2022-08-07T00:48:00;3.45;;;3.10;;
12816;SDS011;6473;51.552;6.716;2022-08-07T00:50:27;2.75;;;2.50;;
12816;SDS011;6473;51.552;6.716;2022-08-07T00:52:54;3.13;;;2.80;;
12816;SDS011;6473;51.552;6.716;2022-08-07T00:55:22;4.60;;;2.92;;
12816;SDS011;6473;51.552;6.716;2022-08-07T00:57:49;3.05;;;2.85;;
12816;SDS011;6473;51.552;6.716;2022-08-07T01:00:16;4.40;;;3.30;;
12816;SDS011;6473;51.552;6.716;2022-08-07T01:02:45;3.40;;;2.75;;
12816;SDS011;6473;51.552;6.716;2022-08-07T01:05:13;2.95;;;2.75;;
12816;SDS011;6473;51.552;6.716;2022-08-07T01:07:41;2.85;;;2.53;;
12816;SDS011;6473;51.552;6.716;2022-08-07T01:10:08;2.67;;;2.47;;
12816;SDS011;6473;51.552;6.716;2022-08-07T01:12:35;3.42;;;2.50;;
12816;SDS011;6473;51.552;6.716;2022-08-07T01:15:05;3.00;;;2.70;;
12816;SDS011;6473;51.552;6.716;2022-08-07T01:17:33;3.35;;;2.83;;
12816;SDS011;6473;51.552;6.716;2022-08-07T01:20:04;3.55;;;3.20;;
12816;SDS011;6473;51.552;6.716;2022-08-07T01:22:35;3.20;;;2.80;;
12816;SDS011;6473;51.552;6.716;2022-08-07T01:25:02;4.72;;;2.97;;
12816;SDS011;6473;51.552;6.716;2022-08-07T01:27:31;3.67;;;2.60;;
12816;SDS011;6473;51.552;6.716;2022-08-07T01:30:00;4.13;;;3.15;;
12816;SDS011;6473;51.552;6.716;2022-08-07T01:32:28;3.40;;;3.10;;
12816;SDS011;6473;51.552;6.716;2022-08-07T01:34:57;3.03;;;2.72;;
12816;SDS011;6473;51.552;6.716;2022-08-07T01:37:26;3.42;;;2.88;;
12816;SDS011;6473;51.552;6.716;2022-08-07T01:39:56;4.15;;;3.03;;
12816;SDS011;6473;51.552;6.716;2022-08-07T01:42:28;3.38;;;2.95;;
12816;SDS011;6473;51.552;6.716;2022-08-07T01:44:56;3.40;;;3.10;;
12816;SDS011;6473;51.552;6.716;2022-08-07T01:47:23;3.58;;;2.95;;
12816;SDS011;6473;51.552;6.716;2022-08-07T01:49:51;3.33;;;3.03;;
12816;SDS011;6473;51.552;6.716;2022-08-07T01:52:19;3.97;;;3.05;;
12816;SDS011;6473;51.552;6.716;2022-08-07T01:54:48;3.38;;;3.08;;
12816;SDS011;6473;51.552;6.716;2022-08-07T01:57:22;3.50;;;3.15;;
12816;SDS011;6473;51.552;6.716;2022-08-07T01:59:54;2.97;;;2.78;;
12816;SDS011;6473;51.552;6.716;2022-08-07T02:02:26;3.20;;;2.88;;
12816;SDS011;6473;51.552;6.716;2022-08-07T02:04:58;4.13;;;2.97;;
12816;SDS011;6473;51.552;6.716;2022-08-07T02:07:33;3.20;;;2.90;;
12816;SDS011;6473;51.552;6.716;2022-08-07T02:10:04;3.63;;;2.95;;
12816;SDS011;6473;51.552;6.716;2022-08-07T02:12:40;3.55;;;2.90;;
12816;SDS011;6473;51.552;6.716;2022-08-07T02:15:13;3.67;;;3.20;;
12816;SDS011;6473;51.552;6.716;2022-08-07T02:17:41;3.55;;;3.25;;
12816;SDS011;6473;51.552;6.716;2022-08-07T02:20:09;3.15;;;2.70;;
12816;SDS011;6473;51.552;6.716;2022-08-07T02:22:37;3.58;;;3.20;;
12816;SDS011;6473;51.552;6.716;2022-08-07T02:25:06;4.93;;;3.40;;
12816;SDS011;6473;51.552;6.716;2022-08-07T02:27:35;3.92;;;3.50;;
12816;SDS011;6473;51.552;6.716;2022-08-07T02:30:06;5.35;;;3.42;;
12816;SDS011;6473;51.552;6.716;2022-08-07T02:32:35;3.50;;;3.15;;
12816;SDS011;6473;51.552;6.716;2022-08-07T02:35:03;3.70;;;3.35;;
12816;SDS011;6473;51.552;6.716;2022-08-07T02:37:33;3.45;;;3.10;;
12816;SDS011;6473;51.552;6.716;2022-08-07T02:40:04;3.33;;;3.03;;
12816;SDS011;6473;51.552;6.716;2022-08-07T02:42:33;3.85;;;3.20;;
12816;SDS011;6473;51.552;6.716;2022-08-07T02:45:02;4.15;;;3.65;;
12816;SDS011;6473;51.552;6.716;2022-08-07T02:47:33;3.50;;;3.10;;
12816;SDS011;6473;51.552;6.716;2022-08-07T02:50:08;3.40;;;3.03;;
12816;SDS011;6473;51.552;6.716;2022-08-07T02:52:38;3.78;;;3.38;;
12816;SDS011;6473;51.552;6.716;2022-08-07T02:55:10;3.65;;;3.30;;
12816;SDS011;6473;51.552;6.716;2022-08-07T02:57:40;4.75;;;3.20;;
12816;SDS011;6473;51.552;6.716;2022-08-07T03:00:12;3.50;;;3.10;;
12816;SDS011;6473;51.552;6.716;2022-08-07T03:02:43;4.00;;;3.45;;
12816;SDS011;6473;51.552;6.716;2022-08-07T03:05:14;3.88;;;3.58;;
12816;SDS011;6473;51.552;6.716;2022-08-07T03:07:42;5.10;;;3.60;;
12816;SDS011;6473;51.552;6.716;2022-08-07T03:10:12;4.50;;;3.47;;
12816;SDS011;6473;51.552;6.716;2022-08-07T03:12:41;3.92;;;3.58;;
12816;SDS011;6473;51.552;6.716;2022-08-07T03:15:11;3.90;;;3.53;;
12816;SDS011;6473;51.552;6.716;2022-08-07T03:17:39;4.40;;;3.50;;
12816;SDS011;6473;51.552;6.716;2022-08-07T03:20:10;3.67;;;3.30;;
12816;SDS011;6473;51.552;6.716;2022-08-07T03:22:39;3.33;;;3.03;;
12816;SDS011;6473;51.552;6.716;2022-08-07T03:25:08;3.38;;;3.08;;
12816;SDS011;6473;51.552;6.716;2022-08-07T03:27:39;3.90;;;2.97;;
12816;SDS011;6473;51.552;6.716;2022-08-07T03:30:12;4.32;;;3.10;;
12816;SDS011;6473;51.552;6.716;2022-08-07T03:32:42;3.83;;;3.35;;
12816;SDS011;6473;51.552;6.716;2022-08-07T03:35:15;3.95;;;3.50;;
12816;SDS011;6473;51.552;6.716;2022-08-07T03:37:48;4.25;;;3.40;;
12816;SDS011;6473;51.552;6.716;2022-08-07T03:40:26;5.70;;;3.90;;
12816;SDS011;6473;51.552;6.716;2022-08-07T03:42:55;4.18;;;3.78;;
12816;SDS011;6473;51.552;6.716;2022-08-07T03:45:23;3.75;;;3.17;;
12816;SDS011;6473;51.552;6.716;2022-08-07T03:47:58;3.55;;;3.20;;
12816;SDS011;6473;51.552;6.716;2022-08-07T03:50:26;3.78;;;3.05;;
12816;SDS011;6473;51.552;6.716;2022-08-07T03:52:56;5.20;;;3.08;;
12816;SDS011;6473;51.552;6.716;2022-08-07T03:55:25;3.50;;;3.20;;
12816;SDS011;6473;51.552;6.716;2022-08-07T03:57:53;4.10;;;3.42;;
12816;SDS011;6473;51.552;6.716;2022-08-07T04:00:25;3.45;;;2.80;;
12816;SDS011;6473;51.552;6.716;2022-08-07T04:02:54;3.15;;;2.85;;
12816;SDS011;6473;51.552;6.716;2022-08-07T04:05:33;3.40;;;3.10;;
12816;SDS011;6473;51.552;6.716;2022-08-07T04:08:01;4.03;;;3.60;;
12816;SDS011;6473;51.552;6.716;2022-08-07T04:10:29;4.30;;;3.30;;
12816;SDS011;6473;51.552;6.716;2022-08-07T04:12:57;3.30;;;3.00;;
12816;SDS011;6473;51.552;6.716;2022-08-07T04:15:25;4.25;;;3.08;;
12816;SDS011;6473;51.552;6.716;2022-08-07T04:17:53;3.28;;;2.92;;
12816;SDS011;6473;51.552;6.716;2022-08-07T04:20:21;3.92;;;3.22;;
12816;SDS011;6473;51.552;6.716;2022-08-07T04:22:49;4.05;;;2.97;;
12816;SDS011;6473;51.552;6.716;2022-08-07T04:25:18;4.00;;;3.50;;
12816;SDS011;6473;51.552;6.716;2022-08-07T04:27:46;5.22;;;3.10;;
12816;SDS011;6473;51.552;6.716;2022-08-07T04:30:15;4.13;;;3.28;;
12816;SDS011;6473;51.552;6.716;2022-08-07T04:32:50;3.90;;;3.03;;
12816;SDS011;6473;51.552;6.716;2022-08-07T04:35:20;3.70;;;3.35;;
12816;SDS011;6473;51.552;6.716;2022-08-07T04:37:51;4.47;;;3.40;;
12816;SDS011;6473;51.552;6.716;2022-08-07T04:40:19;3.95;;;3.30;;
12816;SDS011;6473;51.552;6.716;2022-08-07T04:42:46;4.72;;;3.35;;
12816;SDS011;6473;51.552;6.716;2022-08-07T04:45:14;3.78;;;3.40;;
12816;SDS011;6473;51.552;6.716;2022-08-07T04:47:46;4.40;;;3.60;;
12816;SDS011;6473;51.552;6.716;2022-08-07T04:50:23;4.22;;;3.63;;
12816;SDS011;6473;51.552;6.716;2022-08-07T04:53:09;3.80;;;3.45;;
12816;SDS011;6473;51.552;6.716;2022-08-07T04:55:44;5.82;;;3.75;;
12816;SDS011;6473;51.552;6.716;2022-08-07T04:58:19;4.47;;;4.03;;
12816;SDS011;6473;51.552;6.716;2022-08-07T05:00:50;5.05;;;3.85;;
12816;SDS011;6473;51.552;6.716;2022-08-07T05:03:24;4.82;;;3.75;;
12816;SDS011;6473;51.552;6.716;2022-08-07T05:05:58;3.75;;;3.45;;
12816;SDS011;6473;51.552;6.716;2022-08-07T05:08:41;5.05;;;3.90;;
12816;SDS011;6473;51.552;6.716;2022-08-07T05:11:13;4.10;;;3.70;;
12816;SDS011;6473;51.552;6.716;2022-08-07T05:13:48;6.53;;;3.85;;
12816;SDS011;6473;51.552;6.716;2022-08-07T05:16:18;3.97;;;3.60;;
12816;SDS011;6473;51.552;6.716;2022-08-07T05:18:48;4.05;;;3.65;;
12816;SDS011;6473;51.552;6.716;2022-08-07T05:21:20;4.22;;;3.33;;
12816;SDS011;6473;51.552;6.716;2022-08-07T05:23:52;4.50;;;3.97;;
12816;SDS011;6473;51.552;6.716;2022-08-07T05:26:23;4.72;;;3.70;;
12816;SDS011;6473;51.552;6.716;2022-08-07T05:29:02;5.60;;;4.07;;
12816;SDS011;6473;51.552;6.716;2022-08-07T05:31:34;4.30;;;3.80;;
12816;SDS011;6473;51.552;6.716;2022-08-07T05:34:08;6.30;;;4.10;;
12816;SDS011;6473;51.552;6.716;2022-08-07T05:36:37;4.18;;;3.65;;
12816;SDS011;6473;51.552;6.716;2022-08-07T05:39:14;4.25;;;3.78;;
12816;SDS011;6473;51.552;6.716;2022-08-07T05:41:45;3.70;;;3.40;;
12816;SDS011;6473;51.552;6.716;2022-08-07T05:44:14;4.35;;;3.92;;
12816;SDS011;6473;51.552;6.716;2022-08-07T05:46:45;4.78;;;3.88;;
12816;SDS011;6473;51.552;6.716;2022-08-07T05:49:16;5.03;;;4.03;;
12816;SDS011;6473;51.552;6.716;2022-08-07T05:51:45;4.32;;;3.47;;
12816;SDS011;6473;51.552;6.716;2022-08-07T05:54:17;4.07;;;3.67;;
12816;SDS011;6473;51.552;6.716;2022-08-07T05:56:45;3.50;;;2.88;;
12816;SDS011;6473;51.552;6.716;2022-08-07T05:59:17;3.97;;;2.92;;
12816;SDS011;6473;51.552;6.716;2022-08-07T06:01:51;5.35;;;2.92;;
12816;SDS011;6473;51.552;6.716;2022-08-07T06:04:19;2.97;;;2.72;;
12816;SDS011;6473;51.552;6.716;2022-08-07T06:06:47;3.25;;;2.95;;
12816;SDS011;6473;51.552;6.716;2022-08-07T06:09:17;2.97;;;2.72;;
12816;SDS011;6473;51.552;6.716;2022-08-07T06:11:46;2.70;;;2.50;;
12816;SDS011;6473;51.552;6.716;2022-08-07T06:14:16;3.03;;;2.40;;
12816;SDS011;6473;51.552;6.716;2022-08-07T06:16:46;2.97;;;2.65;;
12816;SDS011;6473;51.552;6.716;2022-08-07T06:19:15;2.65;;;2.42;;
12816;SDS011;6473;51.552;6.716;2022-08-07T06:21:43;2.92;;;2.60;;
12816;SDS011;6473;51.552;6.716;2022-08-07T06:24:32;2.97;;;2.42;;
12816;SDS011;6473;51.552;6.716;2022-08-07T06:27:18;2.40;;;2.20;;
12816;SDS011;6473;51.552;6.716;2022-08-07T06:30:14;2.72;;;2.28;;
12816;SDS011;6473;51.552;6.716;2022-08-07T06:35:33;2.85;;;1.95;;
12816;SDS011;6473;51.552;6.716;2022-08-07T06:38:01;2.70;;;2.10;;
12816;SDS011;6473;51.552;6.716;2022-08-07T06:40:35;2.50;;;2.30;;
12816;SDS011;6473;51.552;6.716;2022-08-07T06:43:06;3.05;;;2.08;;
12816;SDS011;6473;51.552;6.716;2022-08-07T06:45:44;4.50;;;1.90;;
12816;SDS011;6473;51.552;6.716;2022-08-07T06:48:11;2.60;;;2.13;;
12816;SDS011;6473;51.552;6.716;2022-08-07T06:50:48;2.72;;;2.13;;
12816;SDS011;6473;51.552;6.716;2022-08-07T06:53:20;2.95;;;2.17;;
12816;SDS011;6473;51.552;6.716;2022-08-07T06:55:51;2.13;;;1.90;;
12816;SDS011;6473;51.552;6.716;2022-08-07T06:58:21;2.65;;;1.95;;
12816;SDS011;6473;51.552;6.716;2022-08-07T07:00:55;2.22;;;1.95;;
12816;SDS011;6473;51.552;6.716;2022-08-07T07:03:24;2.03;;;1.83;;
12816;SDS011;6473;51.552;6.716;2022-08-07T07:05:51;3.25;;;1.80;;
12816;SDS011;6473;51.552;6.716;2022-08-07T07:08:25;2.22;;;1.95;;
12816;SDS011;6473;51.552;6.716;2022-08-07T07:10:55;2.38;;;1.90;;
12816;SDS011;6473;51.552;6.716;2022-08-07T07:13:28;2.42;;;1.95;;
12816;SDS011;6473;51.552;6.716;2022-08-07T07:16:07;1.60;;;1.50;;
12816;SDS011;6473;51.552;6.716;2022-08-07T07:18:39;2.38;;;1.40;;
12816;SDS011;6473;51.552;6.716;2022-08-07T07:21:11;2.10;;;1.63;;
12816;SDS011;6473;51.552;6.716;2022-08-07T07:23:42;1.80;;;1.70;;
12816;SDS011;6473;51.552;6.716;2022-08-07T07:26:12;2.22;;;1.60;;
12816;SDS011;6473;51.552;6.716;2022-08-07T07:28:43;1.52;;;1.40;;
12816;SDS011;6473;51.552;6.716;2022-08-07T07:31:15;3.15;;;1.60;;
12816;SDS011;6473;51.552;6.716;2022-08-07T07:33:45;2.17;;;1.70;;
12816;SDS011;6473;51.552;6.716;2022-08-07T07:36:16;2.97;;;1.50;;
12816;SDS011;6473;51.552;6.716;2022-08-07T07:38:43;3.22;;;1.73;;
12816;SDS011;6473;51.552;6.716;2022-08-07T07:41:12;1.75;;;1.23;;
12816;SDS011;6473;51.552;6.716;2022-08-07T07:43:43;2.17;;;1.33;;
12816;SDS011;6473;51.552;6.716;2022-08-07T07:46:12;1.92;;;1.35;;
12816;SDS011;6473;51.552;6.716;2022-08-07T07:48:40;2.20;;;1.30;;
12816;SDS011;6473;51.552;6.716;2022-08-07T07:51:08;1.85;;;1.27;;
12816;SDS011;6473;51.552;6.716;2022-08-07T07:53:37;1.33;;;1.20;;
12816;SDS011;6473;51.552;6.716;2022-08-07T07:56:07;1.38;;;1.27;;
12816;SDS011;6473;51.552;6.716;2022-08-07T07:58:37;1.05;;;0.98;;
12816;SDS011;6473;51.552;6.716;2022-08-07T08:01:06;1.20;;;1.00;;
12816;SDS011;6473;51.552;6.716;2022-08-07T08:03:35;1.58;;;1.20;;
12816;SDS011;6473;51.552;6.716;2022-08-07T08:06:03;1.42;;;1.33;;
12816;SDS011;6473;51.552;6.716;2022-08-07T08:08:31;1.02;;;1.02;;
12816;SDS011;6473;51.552;6.716;2022-08-07T08:11:01;0.80;;;0.80;;
12816;SDS011;6473;51.552;6.716;2022-08-07T08:13:29;2.17;;;0.70;;
12816;SDS011;6473;51.552;6.716;2022-08-07T08:16:00;1.15;;;0.80;;
12816;SDS011;6473;51.552;6.716;2022-08-07T08:18:31;0.75;;;0.73;;
12816;SDS011;6473;51.552;6.716;2022-08-07T08:21:01;1.58;;;0.80;;
12816;SDS011;6473;51.552;6.716;2022-08-07T08:23:29;1.55;;;0.90;;
12816;SDS011;6473;51.552;6.716;2022-08-07T08:26:15;0.70;;;0.70;;
12816;SDS011;6473;51.552;6.716;2022-08-07T08:29:03;0.50;;;0.50;;
12816;SDS011;6473;51.552;6.716;2022-08-07T08:31:33;0.63;;;0.50;;
12816;SDS011;6473;51.552;6.716;2022-08-07T08:34:04;0.73;;;0.50;;
12816;SDS011;6473;51.552;6.716;2022-08-07T08:36:33;1.33;;;0.90;;
12816;SDS011;6473;51.552;6.716;2022-08-07T08:39:02;0.60;;;0.60;;
12816;SDS011;6473;51.552;6.716;2022-08-07T08:41:33;0.55;;;0.55;;
12816;SDS011;6473;51.552;6.716;2022-08-07T08:44:10;1.02;;;0.60;;
12816;SDS011;6473;51.552;6.716;2022-08-07T08:46:45;1.83;;;0.60;;
12816;SDS011;6473;51.552;6.716;2022-08-07T08:49:19;0.98;;;0.52;;
12816;SDS011;6473;51.552;6.716;2022-08-07T08:51:54;0.45;;;0.43;;
12816;SDS011;6473;51.552;6.716;2022-08-07T08:54:26;1.25;;;0.57;;
12816;SDS011;6473;51.552;6.716;2022-08-07T08:56:58;0.73;;;0.47;;
12816;SDS011;6473;51.552;6.716;2022-08-07T08:59:32;0.98;;;0.50;;
12816;SDS011;6473;51.552;6.716;2022-08-07T09:02:09;1.00;;;0.70;;
12816;SDS011;6473;51.552;6.716;2022-08-07T09:04:43;0.40;;;0.40;;
12816;SDS011;6473;51.552;6.716;2022-08-07T09:07:17;0.70;;;0.52;;
12816;SDS011;6473;51.552;6.716;2022-08-07T09:09:57;0.63;;;0.55;;
12816;SDS011;6473;51.552;6.716;2022-08-07T09:12:36;0.75;;;0.40;;
12816;SDS011;6473;51.552;6.716;2022-08-07T09:15:11;0.50;;;0.50;;
12816;SDS011;6473;51.552;6.716;2022-08-07T09:17:47;0.50;;;0.40;;
12816;SDS011;6473;51.552;6.716;2022-08-07T09:20:25;0.50;;;0.50;;
12816;SDS011;6473;51.552;6.716;2022-08-07T09:22:56;0.40;;;0.40;;
12816;SDS011;6473;51.552;6.716;2022-08-07T09:25:33;1.35;;;0.43;;
12816;SDS011;6473;51.552;6.716;2022-08-07T09:28:09;0.93;;;0.50;;
12816;SDS011;6473;51.552;6.716;2022-08-07T09:30:48;0.57;;;0.40;;
12816;SDS011;6473;51.552;6.716;2022-08-07T09:33:31;0.45;;;0.45;;
12816;SDS011;6473;51.552;6.716;2022-08-07T09:36:08;0.77;;;0.40;;
12816;SDS011;6473;51.552;6.716;2022-08-07T09:38:41;1.05;;;0.60;;
12816;SDS011;6473;51.552;6.716;2022-08-07T09:41:14;0.50;;;0.50;;
12816;SDS011;6473;51.552;6.716;2022-08-07T09:43:55;0.40;;;0.40;;
12816;SDS011;6473;51.552;6.716;2022-08-07T09:46:34;0.55;;;0.45;;
12816;SDS011;6473;51.552;6.716;2022-08-07T09:49:16;0.30;;;0.30;;
12816;SDS011;6473;51.552;6.716;2022-08-07T09:51:54;0.88;;;0.40;;
12816;SDS011;6473;51.552;6.716;2022-08-07T09:54:32;0.32;;;0.30;;
12816;SDS011;6473;51.552;6.716;2022-08-07T10:00:15;0.50;;;0.50;;
12816;SDS011;6473;51.552;6.716;2022-08-07T10:05:54;0.75;;;0.43;;
12816;SDS011;6473;51.552;6.716;2022-08-07T10:08:56;0.52;;;0.40;;
12816;SDS011;6473;51.552;6.716;2022-08-07T10:11:43;0.73;;;0.63;;
12816;SDS011;6473;51.552;6.716;2022-08-07T10:14:42;1.20;;;0.57;;
12816;SDS011;6473;51.552;6.716;2022-08-07T10:17:40;1.85;;;0.60;;
12816;SDS011;6473;51.552;6.716;2022-08-07T10:20:36;0.60;;;0.60;;
12816;SDS011;6473;51.552;6.716;2022-08-07T10:23:19;1.65;;;0.60;;
12816;SDS011;6473;51.552;6.716;2022-08-07T10:26:00;0.60;;;0.50;;
12816;SDS011;6473;51.552;6.716;2022-08-07T10:28:43;0.70;;;0.70;;
12816;SDS011;6473;51.552;6.716;2022-08-07T10:31:29;0.75;;;0.50;;
12816;SDS011;6473;51.552;6.716;2022-08-07T10:34:16;0.68;;;0.60;;
12816;SDS011;6473;51.552;6.716;2022-08-07T10:36:58;1.40;;;0.68;;
12816;SDS011;6473;51.552;6.716;2022-08-07T10:39:38;0.63;;;0.60;;
12816;SDS011;6473;51.552;6.716;2022-08-07T10:42:16;0.40;;;0.40;;
12816;SDS011;6473;51.552;6.716;2022-08-07T10:44:51;0.77;;;0.43;;
12816;SDS011;6473;51.552;6.716;2022-08-07T10:47:28;1.05;;;0.65;;
12816;SDS011;6473;51.552;6.716;2022-08-07T10:50:04;1.58;;;0.60;;
12816;SDS011;6473;51.552;6.716;2022-08-07T10:52:36;0.52;;;0.50;;
12816;SDS011;6473;51.552;6.716;2022-08-07T10:55:13;0.57;;;0.40;;
12816;SDS011;6473;51.552;6.716;2022-08-07T10:57:45;0.50;;;0.50;;
12816;SDS011;6473;51.552;6.716;2022-08-07T11:00:21;1.33;;;0.50;;
12816;SDS011;6473;51.552;6.716;2022-08-07T11:02:55;0.47;;;0.43;;
12816;SDS011;6473;51.552;6.716;2022-08-07T11:05:29;1.05;;;0.70;;
12816;SDS011;6473;51.552;6.716;2022-08-07T11:08:11;1.33;;;0.50;;
12816;SDS011;6473;51.552;6.716;2022-08-07T11:10:47;0.68;;;0.68;;
12816;SDS011;6473;51.552;6.716;2022-08-07T11:13:18;1.50;;;0.80;;
12816;SDS011;6473;51.552;6.716;2022-08-07T11:15:51;0.75;;;0.50;;
12816;SDS011;6473;51.552;6.716;2022-08-07T11:18:24;1.38;;;0.68;;
12816;SDS011;6473;51.552;6.716;2022-08-07T11:20:57;0.40;;;0.40;;
12816;SDS011;6473;51.552;6.716;2022-08-07T11:23:30;0.52;;;0.50;;
12816;SDS011;6473;51.552;6.716;2022-08-07T11:26:09;0.85;;;0.50;;
12816;SDS011;6473;51.552;6.716;2022-08-07T11:28:40;0.63;;;0.55;;
12816;SDS011;6473;51.552;6.716;2022-08-07T11:31:17;0.60;;;0.60;;
12816;SDS011;6473;51.552;6.716;2022-08-07T11:33:53;1.38;;;0.90;;
12816;SDS011;6473;51.552;6.716;2022-08-07T11:36:39;0.60;;;0.60;;
12816;SDS011;6473;51.552;6.716;2022-08-07T11:39:18;0.95;;;0.50;;
12816;SDS011;6473;51.552;6.716;2022-08-07T11:41:58;0.73;;;0.60;;
12816;SDS011;6473;51.552;6.716;2022-08-07T11:44:38;0.60;;;0.60;;
12816;SDS011;6473;51.552;6.716;2022-08-07T11:47:17;1.00;;;0.57;;
12816;SDS011;6473;51.552;6.716;2022-08-07T11:49:57;0.75;;;0.50;;
12816;SDS011;6473;51.552;6.716;2022-08-07T11:52:44;2.88;;;0.68;;
12816;SDS011;6473;51.552;6.716;2022-08-07T11:55:24;0.50;;;0.50;;
12816;SDS011;6473;51.552;6.716;2022-08-07T11:58:04;0.95;;;0.50;;
12816;SDS011;6473;51.552;6.716;2022-08-07T12:00:44;0.80;;;0.60;;
12816;SDS011;6473;51.552;6.716;2022-08-07T12:03:24;1.85;;;0.70;;
12816;SDS011;6473;51.552;6.716;2022-08-07T12:06:11;0.98;;;0.70;;
12816;SDS011;6473;51.552;6.716;2022-08-07T12:08:54;1.27;;;0.45;;
12816;SDS011;6473;51.552;6.716;2022-08-07T12:11:26;1.15;;;0.60;;
12816;SDS011;6473;51.552;6.716;2022-08-07T12:14:02;0.68;;;0.60;;
12816;SDS011;6473;51.552;6.716;2022-08-07T12:16:35;1.52;;;0.68;;
12816;SDS011;6473;51.552;6.716;2022-08-07T12:19:15;2.17;;;0.90;;
12816;SDS011;6473;51.552;6.716;2022-08-07T12:21:53;2.28;;;0.70;;
12816;SDS011;6473;51.552;6.716;2022-08-07T12:24:33;0.70;;;0.70;;
12816;SDS011;6473;51.552;6.716;2022-08-07T12:27:26;1.42;;;0.70;;
12816;SDS011;6473;51.552;6.716;2022-08-07T12:30:01;0.73;;;0.50;;
12816;SDS011;6473;51.552;6.716;2022-08-07T12:32:33;0.50;;;0.50;;
12816;SDS011;6473;51.552;6.716;2022-08-07T12:35:07;0.73;;;0.73;;
12816;SDS011;6473;51.552;6.716;2022-08-07T12:37:36;0.50;;;0.50;;
12816;SDS011;6473;51.552;6.716;2022-08-07T12:40:05;1.00;;;0.60;;
12816;SDS011;6473;51.552;6.716;2022-08-07T12:42:34;0.82;;;0.75;;
12816;SDS011;6473;51.552;6.716;2022-08-07T12:45:06;0.63;;;0.63;;
12816;SDS011;6473;51.552;6.716;2022-08-07T12:47:39;0.60;;;0.60;;
12816;SDS011;6473;51.552;6.716;2022-08-07T12:50:15;0.75;;;0.60;;
12816;SDS011;6473;51.552;6.716;2022-08-07T12:52:47;4.85;;;0.88;;
12816;SDS011;6473;51.552;6.716;2022-08-07T12:55:24;0.60;;;0.60;;
12816;SDS011;6473;51.552;6.716;2022-08-07T12:57:59;0.80;;;0.80;;
12816;SDS011;6473;51.552;6.716;2022-08-07T13:00:33;0.68;;;0.68;;
12816;SDS011;6473;51.552;6.716;2022-08-07T13:03:12;0.75;;;0.75;;
12816;SDS011;6473;51.552;6.716;2022-08-07T13:05:57;1.20;;;0.60;;
12816;SDS011;6473;51.552;6.716;2022-08-07T13:08:35;0.73;;;0.73;;
12816;SDS011;6473;51.552;6.716;2022-08-07T13:14:14;0.52;;;0.52;;
12816;SDS011;6473;51.552;6.716;2022-08-07T13:16:51;0.57;;;0.57;;
12816;SDS011;6473;51.552;6.716;2022-08-07T13:20:07;1.02;;;0.68;;
12816;SDS011;6473;51.552;6.716;2022-08-07T13:22:36;1.48;;;0.75;;
12816;SDS011;6473;51.552;6.716;2022-08-07T13:25:12;1.73;;;0.70;;
12816;SDS011;6473;51.552;6.716;2022-08-07T13:27:46;0.60;;;0.60;;
12816;SDS011;6473;51.552;6.716;2022-08-07T13:30:17;1.50;;;0.50;;
12816;SDS011;6473;51.552;6.716;2022-08-07T13:32:49;1.10;;;0.70;;
12816;SDS011;6473;51.552;6.716;2022-08-07T13:35:21;0.63;;;0.50;;
12816;SDS011;6473;51.552;6.716;2022-08-07T13:37:56;0.60;;;0.60;;
12816;SDS011;6473;51.552;6.716;2022-08-07T13:40:37;1.33;;;0.70;;
12816;SDS011;6473;51.552;6.716;2022-08-07T13:43:12;1.65;;;0.80;;
12816;SDS011;6473;51.552;6.716;2022-08-07T13:45:42;0.60;;;0.60;;
12816;SDS011;6473;51.552;6.716;2022-08-07T13:48:12;0.80;;;0.70;;
12816;SDS011;6473;51.552;6.716;2022-08-07T13:50:40;0.75;;;0.60;;
12816;SDS011;6473;51.552;6.716;2022-08-07T13:53:08;1.08;;;0.70;;
12816;SDS011;6473;51.552;6.716;2022-08-07T13:55:43;0.50;;;0.50;;
12816;SDS011;6473;51.552;6.716;2022-08-07T13:58:12;1.25;;;0.65;;
12816;SDS011;6473;51.552;6.716;2022-08-07T14:00:59;1.48;;;0.50;;
12816;SDS011;6473;51.552;6.716;2022-08-07T14:03:44;1.42;;;0.60;;
12816;SDS011;6473;51.552;6.716;2022-08-07T14:06:13;0.80;;;0.80;;
12816;SDS011;6473;51.552;6.716;2022-08-07T14:08:42;0.47;;;0.47;;
12816;SDS011;6473;51.552;6.716;2022-08-07T14:11:12;5.15;;;0.88;;
12816;SDS011;6473;51.552;6.716;2022-08-07T14:13:42;2.10;;;0.73;;
12816;SDS011;6473;51.552;6.716;2022-08-07T14:16:19;0.95;;;0.70;;
12816;SDS011;6473;51.552;6.716;2022-08-07T14:18:53;0.60;;;0.60;;
12816;SDS011;6473;51.552;6.716;2022-08-07T14:21:23;0.60;;;0.60;;
12816;SDS011;6473;51.552;6.716;2022-08-07T14:24:06;0.98;;;0.50;;
12816;SDS011;6473;51.552;6.716;2022-08-07T14:26:39;2.88;;;0.75;;
12816;SDS011;6473;51.552;6.716;2022-08-07T14:29:10;0.88;;;0.88;;
12816;SDS011;6473;51.552;6.716;2022-08-07T14:31:41;0.70;;;0.70;;
12816;SDS011;6473;51.552;6.716;2022-08-07T14:34:11;1.48;;;0.70;;
12816;SDS011;6473;51.552;6.716;2022-08-07T14:36:41;1.13;;;0.90;;
12816;SDS011;6473;51.552;6.716;2022-08-07T14:39:11;0.63;;;0.50;;
12816;SDS011;6473;51.552;6.716;2022-08-07T14:41:40;0.70;;;0.70;;
12816;SDS011;6473;51.552;6.716;2022-08-07T14:44:09;1.55;;;0.80;;
12816;SDS011;6473;51.552;6.716;2022-08-07T14:46:41;0.70;;;0.70;;
12816;SDS011;6473;51.552;6.716;2022-08-07T14:49:12;0.82;;;0.80;;
12816;SDS011;6473;51.552;6.716;2022-08-07T14:51:42;1.08;;;0.70;;
12816;SDS011;6473;51.552;6.716;2022-08-07T14:54:13;0.80;;;0.80;;
12816;SDS011;6473;51.552;6.716;2022-08-07T14:56:42;1.00;;;0.60;;
12816;SDS011;6473;51.552;6.716;2022-08-07T14:59:21;1.67;;;0.85;;
12816;SDS011;6473;51.552;6.716;2022-08-07T15:01:49;2.95;;;0.90;;
12816;SDS011;6473;51.552;6.716;2022-08-07T15:04:19;1.13;;;0.93;;
12816;SDS011;6473;51.552;6.716;2022-08-07T15:06:48;0.60;;;0.60;;
12816;SDS011;6473;51.552;6.716;2022-08-07T15:09:18;1.02;;;0.80;;
12816;SDS011;6473;51.552;6.716;2022-08-07T15:11:50;0.82;;;0.70;;
12816;SDS011;6473;51.552;6.716;2022-08-07T15:14:21;0.70;;;0.70;;
12816;SDS011;6473;51.552;6.716;2022-08-07T15:16:53;2.25;;;0.90;;
12816;SDS011;6473;51.552;6.716;2022-08-07T15:19:25;0.65;;;0.65;;
12816;SDS011;6473;51.552;6.716;2022-08-07T15:21:57;1.20;;;0.85;;
12816;SDS011;6473;51.552;6.716;2022-08-07T15:24:37;1.90;;;0.70;;
12816;SDS011;6473;51.552;6.716;2022-08-07T15:27:09;1.00;;;0.68;;
12816;SDS011;6473;51.552;6.716;2022-08-07T15:29:39;1.27;;;0.80;;
12816;SDS011;6473;51.552;6.716;2022-08-07T15:32:08;0.90;;;0.80;;
12816;SDS011;6473;51.552;6.716;2022-08-07T15:34:39;0.90;;;0.80;;
12816;SDS011;6473;51.552;6.716;2022-08-07T15:37:09;1.02;;;0.80;;
12816;SDS011;6473;51.552;6.716;2022-08-07T15:39:40;0.65;;;0.65;;
12816;SDS011;6473;51.552;6.716;2022-08-07T15:42:34;1.08;;;0.90;;
12816;SDS011;6473;51.552;6.716;2022-08-07T15:45:39;0.80;;;0.80;;
12816;SDS011;6473;51.552;6.716;2022-08-07T15:48:12;1.77;;;1.02;;